馬公航空站 - ATIS

METAR RCQC 231800Z 02009KT 9999 FEW010 SCT016 19/17 Q1021 RMK A3017=

站台狀態:Online
最後更新:2020-02-24 02:30:02